^^
Meteo Knjazevac Station Historical Data
Daily Summary for February 2, 2022 Units:  Both    English   Metric
Daily Weekly Monthly Yearly Custom
  High: Low: Average:
Temperature: 79.6 °F /  26.4 °C 45.1 °F /  7.3 °C 61.5 °F /  16.4 °C
Dew Point: 55.7 °F /  13.2 °C 42.2 °F /  5.7 °C 48.2 °F /  9 °C
Humidity: 91% 39.2% 65%
Wind Speed: 14mph /  22.5km/h - 5.2mph /  8.4km/h
Wind Gust: 15mph /  24.1km/h - -
Wind- - WSW
Pressure: 30.22 in /  1023.2 hPa 30.13 in /  1020.2 hPa -
Precipitation: 0.00 in /  0 mm    
Historical Graphs
 
 
Tabular Data for February 2, 2022
Time Temperature Dew Point Pressure Wind Wind Speed Wind Gust Humidity Rainfall Rate (Hourly) solar Conditions
00:04 47.5 °F /  8.6 °C 43.5 °F /  6.4 °C 30.20in /  1022.6hPa WNW 3.5mph /  5.6km/h 4mph /  6.4km/h 86% 0.00in /  0mm 0 W/m2
00:09 47.5 °F /  8.6 °C 43.7 °F /  6.5 °C 30.20in /  1022.6hPa WNW 3.5mph /  5.6km/h 5mph /  8km/h 86.8% 0.00in /  0mm 0 W/m2
00:14 47.5 °F /  8.6 °C 43.6 °F /  6.4 °C 30.20in /  1022.6hPa WNW 3.1mph /  5km/h 5mph /  8km/h 86.3% 0.00in /  0mm 0 W/m2
00:19 47.6 °F /  8.7 °C 43.9 °F /  6.6 °C 30.20in /  1022.6hPa WNW 2.1mph /  3.4km/h 5mph /  8km/h 86.9% 0.00in /  0mm 0 W/m2
00:24 47.7 °F /  8.7 °C 43.8 °F /  6.6 °C 30.19in /  1022.2hPa NW 1.9mph /  3.1km/h 2mph /  3.2km/h 86.4% 0.00in /  0mm 0 W/m2
00:29 47.5 °F /  8.6 °C 43.4 °F /  6.3 °C 30.19in /  1022.2hPa NW 3.1mph /  5km/h 2.7mph /  4.3km/h 85.6% 0.00in /  0mm 0 W/m2
00:34 47.2 °F /  8.4 °C 43.2 °F /  6.2 °C 30.19in /  1022.2hPa NW 3.8mph /  6.1km/h 5mph /  8km/h 86% 0.00in /  0mm 0 W/m2
00:39 47.1 °F /  8.4 °C 43.2 °F /  6.2 °C 30.19in /  1022.2hPa WNW 3.3mph /  5.3km/h 5mph /  8km/h 86.4% 0.00in /  0mm 0 W/m2
00:44 46.9 °F /  8.3 °C 43.2 °F /  6.2 °C 30.19in /  1022.2hPa WNW 2.8mph /  4.5km/h 4mph /  6.4km/h 86.7% 0.00in /  0mm 0 W/m2
00:49 46.9 °F /  8.3 °C 42.9 °F /  6.1 °C 30.19in /  1022.2hPa WNW 3.4mph /  5.5km/h 3.1mph /  5km/h 86% 0.00in /  0mm 0 W/m2
00:54 46.6 °F /  8.1 °C 42.9 °F /  6.1 °C 30.19in /  1022.2hPa WNW 4.1mph /  6.6km/h 5mph /  8km/h 87.1% 0.00in /  0mm 0 W/m2
00:59 46.6 °F /  8.1 °C 43.2 °F /  6.2 °C 30.19in /  1022.2hPa WNW 2.9mph /  4.7km/h 5mph /  8km/h 88% 0.00in /  0mm 0 W/m2
01:04 46.5 °F /  8.1 °C 42.7 °F /  5.9 °C 30.19in /  1022.2hPa West 2.3mph /  3.7km/h 4mph /  6.4km/h 86.5% 0.00in /  0mm 0 W/m2
01:09 46.2 °F /  7.9 °C 42.3 °F /  5.7 °C 30.19in /  1022.2hPa West 2.7mph /  4.3km/h 3mph /  4.8km/h 86% 0.00in /  0mm 0 W/m2
01:14 45.9 °F /  7.7 °C 42.3 °F /  5.7 °C 30.19in /  1022.2hPa West 2.9mph /  4.7km/h 3.1mph /  5km/h 87.2% 0.00in /  0mm 0 W/m2
01:19 45.8 °F /  7.7 °C 42.4 °F /  5.8 °C 30.19in /  1022.2hPa West 4.1mph /  6.6km/h 5mph /  8km/h 88.2% 0.00in /  0mm 0 W/m2
01:24 45.6 °F /  7.6 °C 42.2 °F /  5.7 °C 30.19in /  1022.2hPa West 2.9mph /  4.7km/h 5mph /  8km/h 88% 0.00in /  0mm 0 W/m2
01:29 45.5 °F /  7.5 °C 42.3 °F /  5.7 °C 30.19in /  1022.2hPa West 4.9mph /  7.9km/h 4.9mph /  7.9km/h 88.5% 0.00in /  0mm 0 W/m2
01:34 45.6 °F /  7.6 °C 42.6 °F /  5.9 °C 30.19in /  1022.2hPa West 5mph /  8km/h 6mph /  9.7km/h 89.5% 0.00in /  0mm 0 W/m2
01:39 45.9 °F /  7.7 °C 43.2 °F /  6.2 °C 30.19in /  1022.2hPa WNW 5.1mph /  8.2km/h 5mph /  8km/h 90% 0.00in /  0mm 0 W/m2
01:44 46.5 °F /  8.1 °C 43.7 °F /  6.5 °C 30.19in /  1022.2hPa WNW 4.9mph /  7.9km/h 6mph /  9.7km/h 90% 0.00in /  0mm 0 W/m2
01:49 46.7 °F /  8.2 °C 43.7 °F /  6.5 °C 30.19in /  1022.2hPa West 2.5mph /  4km/h 6mph /  9.7km/h 89.2% 0.00in /  0mm 0 W/m2
01:54 46.7 °F /  8.2 °C 43.6 °F /  6.4 °C 30.19in /  1022.2hPa West 2.9mph /  4.7km/h 3mph /  4.8km/h 89% 0.00in /  0mm 0 W/m2
01:59 46.6 °F /  8.1 °C 43.5 °F /  6.4 °C 30.19in /  1022.2hPa West 3.2mph /  5.1km/h 3mph /  4.8km/h 89% 0.00in /  0mm 0 W/m2
02:04 46.4 °F /  8 °C 43.3 °F /  6.3 °C 30.19in /  1022.2hPa WNW 3.2mph /  5.1km/h 3mph /  4.8km/h 89% 0.00in /  0mm 0 W/m2
02:09 46.4 °F /  8 °C 43.3 °F /  6.3 °C 30.19in /  1022.2hPa WNW 2.3mph /  3.7km/h 4mph /  6.4km/h 89% 0.00in /  0mm 0 W/m2
02:14 46.4 °F /  8 °C 43.3 °F /  6.3 °C 30.19in /  1022.2hPa WNW 2.2mph /  3.5km/h 3mph /  4.8km/h 89% 0.00in /  0mm 0 W/m2
02:19 46.4 °F /  8 °C 43.3 °F /  6.3 °C 30.19in /  1022.2hPa WNW 2.2mph /  3.5km/h 2.5mph /  4km/h 89% 0.00in /  0mm 0 W/m2
02:24 46.4 °F /  8 °C 43.3 °F /  6.3 °C 30.19in /  1022.2hPa NW 2.8mph /  4.5km/h 3mph /  4.8km/h 89% 0.00in /  0mm 0 W/m2
02:29 46.2 °F /  7.9 °C 43.2 °F /  6.2 °C 30.19in /  1022.2hPa NW 2.3mph /  3.7km/h 3mph /  4.8km/h 89% 0.00in /  0mm 0 W/m2
02:34 46.2 °F /  7.9 °C 43.4 °F /  6.3 °C 30.19in /  1022.2hPa NW 2.7mph /  4.3km/h 2.5mph /  4km/h 89.9% 0.00in /  0mm 0 W/m2
02:39 46.4 °F /  8 °C 43.6 °F /  6.4 °C 30.19in /  1022.2hPa NW 2.6mph /  4.2km/h 4mph /  6.4km/h 90% 0.00in /  0mm 0 W/m2
02:44 46.6 °F /  8.1 °C 43.6 °F /  6.4 °C 30.19in /  1022.2hPa NW 2.7mph /  4.3km/h 3mph /  4.8km/h 89.6% 0.00in /  0mm 0 W/m2
02:49 46.6 °F /  8.1 °C 43.3 °F /  6.3 °C 30.19in /  1022.2hPa WNW 2.7mph /  4.3km/h 4mph /  6.4km/h 88.6% 0.00in /  0mm 0 W/m2
02:54 46.3 °F /  7.9 °C 43 °F /  6.1 °C 30.19in /  1022.2hPa WNW 2.5mph /  4km/h 4mph /  6.4km/h 88.1% 0.00in /  0mm 0 W/m2
02:59 46 °F /  7.8 °C 42.6 °F /  5.9 °C 30.19in /  1022.2hPa NW 2.8mph /  4.5km/h 3mph /  4.8km/h 88% 0.00in /  0mm 0 W/m2
03:04 45.6 °F /  7.6 °C 42.3 °F /  5.7 °C 30.19in /  1022.2hPa NW 3.1mph /  5km/h 3mph /  4.8km/h 88% 0.00in /  0mm 0 W/m2
03:09 45.5 °F /  7.5 °C 42.5 °F /  5.8 °C 30.19in /  1022.2hPa NW 4.1mph /  6.6km/h 4mph /  6.4km/h 89.3% 0.00in /  0mm 0 W/m2
03:14 45.7 °F /  7.6 °C 42.9 °F /  6.1 °C 30.19in /  1022.2hPa NW 2.8mph /  4.5km/h 6mph /  9.7km/h 90% 0.00in /  0mm 0 W/m2
03:19 45.9 °F /  7.7 °C 43.1 °F /  6.2 °C 30.19in /  1022.2hPa NNW 3.3mph /  5.3km/h 3.1mph /  5km/h 90% 0.00in /  0mm 0 W/m2
03:24 46 °F /  7.8 °C 43.2 °F /  6.2 °C 30.19in /  1022.2hPa NNW 3.6mph /  5.8km/h 6mph /  9.7km/h 90% 0.00in /  0mm 0 W/m2
03:29 46 °F /  7.8 °C 43.2 °F /  6.2 °C 30.19in /  1022.2hPa North 2.8mph /  4.5km/h 4mph /  6.4km/h 89.8% 0.00in /  0mm 0 W/m2
03:34 45.9 °F /  7.7 °C 43 °F /  6.1 °C 30.19in /  1022.2hPa North 2.3mph /  3.7km/h 3mph /  4.8km/h 89.6% 0.00in /  0mm 0 W/m2
03:39 45.9 °F /  7.7 °C 43.1 °F /  6.2 °C 30.19in /  1022.2hPa NNW 3mph /  4.8km/h 3mph /  4.8km/h 90% 0.00in /  0mm 0 W/m2
03:44 45.9 °F /  7.7 °C 43 °F /  6.1 °C 30.19in /  1022.2hPa NNW 2.9mph /  4.7km/h 4mph /  6.4km/h 89.8% 0.00in /  0mm 0 W/m2
03:49 45.9 °F /  7.7 °C 43.3 °F /  6.3 °C 30.19in /  1022.2hPa NNW 2.3mph /  3.7km/h 3mph /  4.8km/h 90.3% 0.00in /  0mm 0 W/m2
03:54 46 °F /  7.8 °C 43.2 °F /  6.2 °C 30.19in /  1022.2hPa NW 2.7mph /  4.3km/h 3mph /  4.8km/h 89.8% 0.00in /  0mm 0 W/m2
03:59 45.8 °F /  7.7 °C 42.7 °F /  5.9 °C 30.19in /  1022.2hPa NW 2.6mph /  4.2km/h 5mph /  8km/h 89% 0.00in /  0mm 0 W/m2
04:04 45.5 °F /  7.5 °C 42.4 °F /  5.8 °C 30.19in /  1022.2hPa NW 2.3mph /  3.7km/h 2mph /  3.2km/h 89% 0.00in /  0mm 0 W/m2
04:09 45.2 °F /  7.3 °C 42.3 °F /  5.7 °C 30.19in /  1022.2hPa WNW 3.4mph /  5.5km/h 3.6mph /  5.8km/h 89.4% 0.00in /  0mm 0 W/m2
04:14 45.1 °F /  7.3 °C 42.5 °F /  5.8 °C 30.19in /  1022.2hPa West 4.1mph /  6.6km/h 5mph /  8km/h 90.5% 0.00in /  0mm 0 W/m2
04:19 45.3 °F /  7.4 °C 42.8 °F /  6 °C 30.19in /  1022.2hPa WNW 3.7mph /  6km/h 5mph /  8km/h 91% 0.00in /  0mm 0 W/m2
04:24 45.6 °F /  7.6 °C 43.1 °F /  6.2 °C 30.19in /  1022.2hPa WNW 3.5mph /  5.6km/h 5mph /  8km/h 91% 0.00in /  0mm 0 W/m2
04:29 45.9 °F /  7.7 °C 43.5 °F /  6.4 °C 30.19in /  1022.2hPa WNW 3mph /  4.8km/h 4mph /  6.4km/h 91% 0.00in /  0mm 0 W/m2
04:34 46 °F /  7.8 °C 43.5 °F /  6.4 °C 30.19in /  1022.2hPa WNW 3.4mph /  5.5km/h 3mph /  4.8km/h 90.6% 0.00in /  0mm 0 W/m2
04:39 46 °F /  7.8 °C 43.3 °F /  6.3 °C 30.19in /  1022.2hPa WNW 3.3mph /  5.3km/h 3.1mph /  5km/h 90% 0.00in /  0mm 0 W/m2
04:44 46 °F /  7.8 °C 43.3 °F /  6.3 °C 30.19in /  1022.2hPa West 3.8mph /  6.1km/h 5mph /  8km/h 90% 0.00in /  0mm 0 W/m2
04:49 45.8 °F /  7.7 °C 43 °F /  6.1 °C 30.19in /  1022.2hPa West 4.6mph /  7.4km/h 5mph /  8km/h 90% 0.00in /  0mm 0 W/m2
04:54 45.9 °F /  7.7 °C 43.4 °F /  6.3 °C 30.19in /  1022.2hPa WNW 4.9mph /  7.9km/h 7mph /  11.3km/h 90.8% 0.00in /  0mm 0 W/m2
04:59 46.1 °F /  7.8 °C 43.4 °F /  6.3 °C 30.19in /  1022.2hPa WNW 3.7mph /  6km/h 7mph /  11.3km/h 90.1% 0.00in /  0mm 0 W/m2
05:04 46.2 °F /  7.9 °C 43.4 °F /  6.3 °C 30.19in /  1022.2hPa NW 3.3mph /  5.3km/h 5mph /  8km/h 90% 0.00in /  0mm 0 W/m2
05:09 46.1 °F /  7.8 °C 43.3 °F /  6.3 °C 30.19in /  1022.2hPa WNW 3.5mph /  5.6km/h 4mph /  6.4km/h 89.8% 0.00in /  0mm 0 W/m2
05:14 45.9 °F /  7.7 °C 43 °F /  6.1 °C 30.19in /  1022.2hPa West 4.3mph /  6.9km/h 5mph /  8km/h 89.5% 0.00in /  0mm 0 W/m2
05:19 45.7 °F /  7.6 °C 42.9 °F /  6.1 °C 30.19in /  1022.2hPa West 4.7mph /  7.6km/h 6mph /  9.7km/h 90% 0.00in /  0mm 0 W/m2
05:24 45.7 °F /  7.6 °C 43 °F /  6.1 °C 30.19in /  1022.2hPa West 5.4mph /  8.7km/h 5mph /  8km/h 90.4% 0.00in /  0mm 0 W/m2
05:29 45.7 °F /  7.6 °C 43.2 °F /  6.2 °C 30.19in /  1022.2hPa West 6mph /  9.7km/h 7mph /  11.3km/h 91% 0.00in /  0mm 0 W/m2
05:34 45.9 °F /  7.7 °C 43.4 °F /  6.3 °C 30.19in /  1022.2hPa WNW 6.7mph /  10.8km/h 7mph /  11.3km/h 91% 0.00in /  0mm 0 W/m2
05:39 46.2 °F /  7.9 °C 43.7 °F /  6.5 °C 30.19in /  1022.2hPa WNW 4.5mph /  7.2km/h 7mph /  11.3km/h 91% 0.00in /  0mm 0 W/m2
05:44 46.4 °F /  8 °C 43.8 °F /  6.6 °C 30.19in /  1022.2hPa WNW 2.6mph /  4.2km/h 5mph /  8km/h 90.8% 0.00in /  0mm 0 W/m2
05:49 46.4 °F /  8 °C 43.7 °F /  6.5 °C 30.19in /  1022.2hPa WNW 3.5mph /  5.6km/h 3.1mph /  5km/h 90.3% 0.00in /  0mm 0 W/m2
05:54 46.3 °F /  7.9 °C 43.6 °F /  6.4 °C 30.19in /  1022.2hPa WNW 3.3mph /  5.3km/h 5mph /  8km/h 90.1% 0.00in /  0mm 0 W/m2
05:59 46.2 °F /  7.9 °C 43.5 °F /  6.4 °C 30.19in /  1022.2hPa WNW 3.8mph /  6.1km/h 4mph /  6.4km/h 90.3% 0.00in /  0mm 1 W/m2
06:04 46.2 °F /  7.9 °C 43.4 °F /  6.3 °C 30.19in /  1022.2hPa WNW 2.9mph /  4.7km/h 5mph /  8km/h 90.1% 0.00in /  0mm 3 W/m2
06:09 46.2 °F /  7.9 °C 43.4 °F /  6.3 °C 30.20in /  1022.6hPa WNW 2.7mph /  4.3km/h 4mph /  6.4km/h 90% 0.00in /  0mm 5 W/m2
06:14 46.1 °F /  7.8 °C 43.3 °F /  6.3 °C 30.20in /  1022.6hPa NW 3.4mph /  5.5km/h 4mph /  6.4km/h 90% 0.00in /  0mm 9 W/m2
06:19 46 °F /  7.8 °C 43.3 °F /  6.3 °C 30.20in /  1022.6hPa NW 3.1mph /  5km/h 3mph /  4.8km/h 90% 0.00in /  0mm 12 W/m2
06:24 45.9 °F /  7.7 °C 43.2 °F /  6.2 °C 30.20in /  1022.6hPa WNW 4mph /  6.4km/h 4mph /  6.4km/h 90% 0.00in /  0mm 17 W/m2
06:29 45.7 °F /  7.6 °C 42.9 °F /  6.1 °C 30.20in /  1022.6hPa WNW 2.8mph /  4.5km/h 5mph /  8km/h 90% 0.00in /  0mm 22 W/m2
06:34 45.7 °F /  7.6 °C 42.9 °F /  6.1 °C 30.20in /  1022.6hPa WNW 3.2mph /  5.1km/h 3mph /  4.8km/h 90% 0.00in /  0mm 29 W/m2
06:39 45.7 °F /  7.6 °C 43.1 °F /  6.2 °C 30.20in /  1022.6hPa WNW 3.3mph /  5.3km/h 4mph /  6.4km/h 90.8% 0.00in /  0mm 36 W/m2
06:44 45.8 °F /  7.7 °C 43.3 °F /  6.3 °C 30.21in /  1022.9hPa West 2.7mph /  4.3km/h 3mph /  4.8km/h 91% 0.00in /  0mm 45 W/m2
06:49 46 °F /  7.8 °C 43.5 °F /  6.4 °C 30.21in /  1022.9hPa WNW 2.9mph /  4.7km/h 3mph /  4.8km/h 91% 0.00in /  0mm 53 W/m2
06:54 46.2 °F /  7.9 °C 43.7 °F /  6.5 °C 30.21in /  1022.9hPa NW 3.5mph /  5.6km/h 4mph /  6.4km/h 91% 0.00in /  0mm 63 W/m2
06:59 46.4 °F /  8 °C 43.9 °F /  6.6 °C 30.21in /  1022.9hPa NW 2.5mph /  4km/h 4mph /  6.4km/h 90.8% 0.00in /  0mm 73 W/m2
07:04 46.9 °F /  8.3 °C 44.3 °F /  6.8 °C 30.21in /  1022.9hPa NW 2.5mph /  4km/h 2.2mph /  3.5km/h 90.5% 0.00in /  0mm 85 W/m2
07:09 47.1 °F /  8.4 °C 44.3 °F /  6.8 °C 30.21in /  1022.9hPa WNW 2.4mph /  3.9km/h 3mph /  4.8km/h 90% 0.00in /  0mm 95 W/m2
07:14 47.3 °F /  8.5 °C 44.5 °F /  6.9 °C 30.22in /  1023.2hPa WNW 1.8mph /  2.9km/h 2mph /  3.2km/h 90% 0.00in /  0mm 107 W/m2
07:19 47.5 °F /  8.6 °C 44.7 °F /  7.1 °C 30.22in /  1023.2hPa NW 2.2mph /  3.5km/h 2mph /  3.2km/h 90% 0.00in /  0mm 119 W/m2
07:24 47.7 °F /  8.7 °C 44.8 °F /  7.1 °C 30.22in /  1023.2hPa NW 2.5mph /  4km/h 2mph /  3.2km/h 89.7% 0.00in /  0mm 131 W/m2
07:29 48.3 °F /  9.1 °C 45.5 °F /  7.5 °C 30.22in /  1023.2hPa WNW 3mph /  4.8km/h 4mph /  6.4km/h 90% 0.00in /  0mm 142 W/m2
07:34 49.7 °F /  9.8 °C 46.5 °F /  8.1 °C 30.22in /  1023.2hPa NW 2.6mph /  4.2km/h 4mph /  6.4km/h 88.9% 0.00in /  0mm 156 W/m2
07:39 51.3 °F /  10.7 °C 47.2 °F /  8.4 °C 30.22in /  1023.2hPa NW 2.3mph /  3.7km/h 3mph /  4.8km/h 86.1% 0.00in /  0mm 170 W/m2
07:44 52.6 °F /  11.4 °C 48 °F /  8.9 °C 30.22in /  1023.2hPa WNW 2.3mph /  3.7km/h 2mph /  3.2km/h 84.3% 0.00in /  0mm 184 W/m2
07:49 53.8 °F /  12.1 °C 48.4 °F /  9.1 °C 30.22in /  1023.2hPa West 2.2mph /  3.5km/h 2mph /  3.2km/h 81.9% 0.00in /  0mm 197 W/m2
07:54 55 °F /  12.8 °C 49.1 °F /  9.5 °C 30.22in /  1023.2hPa WSW 1.7mph /  2.7km/h 2mph /  3.2km/h 80.4% 0.00in /  0mm 211 W/m2
07:59 56.3 °F /  13.5 °C 50 °F /  10 °C 30.22in /  1023.2hPa SW 2.5mph /  4km/h 2mph /  3.2km/h 79.3% 0.00in /  0mm 224 W/m2
08:04 57.4 °F /  14.1 °C 49.8 °F /  9.9 °C 30.22in /  1023.2hPa SSW 2.7mph /  4.3km/h 3mph /  4.8km/h 75.7% 0.00in /  0mm 236 W/m2
08:09 58.3 °F /  14.6 °C 50.3 °F /  10.2 °C 30.22in /  1023.2hPa SSW 2.7mph /  4.3km/h 3mph /  4.8km/h 74.6% 0.00in /  0mm 249 W/m2
08:14 58.6 °F /  14.8 °C 50.1 °F /  10.1 °C 30.22in /  1023.2hPa SW 3.4mph /  5.5km/h 4mph /  6.4km/h 73.4% 0.00in /  0mm 263 W/m2
08:19 59.3 °F /  15.2 °C 50.6 °F /  10.3 °C 30.22in /  1023.2hPa WSW 2mph /  3.2km/h 4mph /  6.4km/h 72.8% 0.00in /  0mm 276 W/m2
08:24 60.4 °F /  15.8 °C 51.3 °F /  10.7 °C 30.22in /  1023.2hPa WSW 3.1mph /  5km/h 2mph /  3.2km/h 71.9% 0.00in /  0mm 289 W/m2
08:29 61.2 °F /  16.2 °C 50.8 °F /  10.4 °C 30.22in /  1023.2hPa South 3.3mph /  5.3km/h 4mph /  6.4km/h 68.5% 0.00in /  0mm 302 W/m2
08:34 61.8 °F /  16.6 °C 51.5 °F /  10.8 °C 30.22in /  1023.2hPa SSE 2.4mph /  3.9km/h 4mph /  6.4km/h 68.9% 0.00in /  0mm 313 W/m2
08:39 62.7 °F /  17.1 °C 52.3 °F /  11.3 °C 30.21in /  1022.9hPa South 1.8mph /  2.9km/h 3mph /  4.8km/h 68.9% 0.00in /  0mm 324 W/m2
08:44 63.7 °F /  17.6 °C 52.2 °F /  11.2 °C 30.21in /  1022.9hPa SSW 2.3mph /  3.7km/h 2mph /  3.2km/h 66.4% 0.00in /  0mm 336 W/m2
08:49 64.7 °F /  18.2 °C 52.5 °F /  11.4 °C 30.21in /  1022.9hPa South 2.1mph /  3.4km/h 3mph /  4.8km/h 64.8% 0.00in /  0mm 349 W/m2
08:54 65.6 °F /  18.7 °C 53.2 °F /  11.8 °C 30.21in /  1022.9hPa South 2mph /  3.2km/h 2mph /  3.2km/h 64.3% 0.00in /  0mm 357 W/m2
08:59 66.2 °F /  19 °C 53.3 °F /  11.8 °C 30.21in /  1022.9hPa SSE 1.8mph /  2.9km/h 2mph /  3.2km/h 63.1% 0.00in /  0mm 369 W/m2
09:04 66.8 °F /  19.3 °C 53.1 °F /  11.7 °C 30.21in /  1022.9hPa SE 2.1mph /  3.4km/h 2mph /  3.2km/h 61.4% 0.00in /  0mm 383 W/m2
09:09 67.3 °F /  19.6 °C 53.2 °F /  11.8 °C 30.21in /  1022.9hPa ESE 1.6mph /  2.6km/h 2mph /  3.2km/h 60.6% 0.00in /  0mm 397 W/m2
09:14 68.3 °F /  20.2 °C 53.5 °F /  11.9 °C 30.21in /  1022.9hPa South 2.6mph /  4.2km/h 2.2mph /  3.5km/h 59.3% 0.00in /  0mm 409 W/m2
09:19 69.2 °F /  20.7 °C 54 °F /  12.2 °C 30.20in /  1022.6hPa SSW 4.4mph /  7.1km/h 4mph /  6.4km/h 58.5% 0.00in /  0mm 420 W/m2
09:24 69.8 °F /  21 °C 54.7 °F /  12.6 °C 30.20in /  1022.6hPa SW 4.4mph /  7.1km/h 5mph /  8km/h 58.8% 0.00in /  0mm 431 W/m2
09:29 70.4 °F /  21.3 °C 54.6 °F /  12.6 °C 30.20in /  1022.6hPa SSW 3.9mph /  6.3km/h 5mph /  8km/h 57.3% 0.00in /  0mm 441 W/m2
09:34 70.5 °F /  21.4 °C 54.5 °F /  12.5 °C 30.20in /  1022.6hPa SSW 4.4mph /  7.1km/h 5mph /  8km/h 56.9% 0.00in /  0mm 445 W/m2
09:39 70.8 °F /  21.6 °C 54.5 °F /  12.5 °C 30.20in /  1022.6hPa South 3.4mph /  5.5km/h 5mph /  8km/h 56.5% 0.00in /  0mm 456 W/m2
09:44 71.1 °F /  21.7 °C 54.9 °F /  12.7 °C 30.20in /  1022.6hPa SSW 5.6mph /  9km/h 6mph /  9.7km/h 56.5% 0.00in /  0mm 463 W/m2
09:49 71.8 °F /  22.1 °C 54.2 °F /  12.3 °C 30.19in /  1022.2hPa SW 9.1mph /  14.6km/h 9mph /  14.5km/h 53.9% 0.00in /  0mm 355 W/m2
09:54 72.5 °F /  22.5 °C 54.4 °F /  12.4 °C 30.19in /  1022.2hPa SW 9.5mph /  15.3km/h 10mph /  16.1km/h 53% 0.00in /  0mm 355 W/m2
09:59 72.9 °F /  22.7 °C 54.5 °F /  12.5 °C 30.19in /  1022.2hPa SW 7.9mph /  12.7km/h 11mph /  17.7km/h 52.4% 0.00in /  0mm 263 W/m2
10:04 73.3 °F /  22.9 °C 54.7 °F /  12.6 °C 30.19in /  1022.2hPa SW 7mph /  11.3km/h 9mph /  14.5km/h 52.2% 0.00in /  0mm 289 W/m2
10:09 73.8 °F /  23.2 °C 54.6 °F /  12.6 °C 30.19in /  1022.2hPa SW 7.5mph /  12.1km/h 7mph /  11.3km/h 51.2% 0.00in /  0mm 307 W/m2
10:14 74.1 °F /  23.4 °C 54.5 °F /  12.5 °C 30.19in /  1022.2hPa SW 8.7mph /  14km/h 8mph /  12.9km/h 50.4% 0.00in /  0mm 348 W/m2
10:19 74.4 °F /  23.6 °C 54.5 °F /  12.5 °C 30.19in /  1022.2hPa SW 9.3mph /  15km/h 9mph /  14.5km/h 49.9% 0.00in /  0mm 389 W/m2
10:24 74.8 °F /  23.8 °C 54.7 °F /  12.6 °C 30.19in /  1022.2hPa SW 8.3mph /  13.4km/h 10mph /  16.1km/h 49.6% 0.00in /  0mm 411 W/m2
10:29 75.1 °F /  23.9 °C 54.6 °F /  12.6 °C 30.19in /  1022.2hPa SW 9.5mph /  15.3km/h 9mph /  14.5km/h 48.9% 0.00in /  0mm 505 W/m2
10:34 75.2 °F /  24 °C 54.6 °F /  12.6 °C 30.19in /  1022.2hPa SW 8.2mph /  13.2km/h 12mph /  19.3km/h 48.8% 0.00in /  0mm 471 W/m2
10:39 75.5 °F /  24.2 °C 54.5 °F /  12.5 °C 30.18in /  1021.9hPa SW 8.8mph /  14.2km/h 9mph /  14.5km/h 48.3% 0.00in /  0mm 475 W/m2
10:44 75.6 °F /  24.2 °C 54.5 °F /  12.5 °C 30.18in /  1021.9hPa SW 9mph /  14.5km/h 10mph /  16.1km/h 48% 0.00in /  0mm 516 W/m2
10:49 75.8 °F /  24.3 °C 54.7 °F /  12.6 °C 30.18in /  1021.9hPa SW 8mph /  12.9km/h 10mph /  16.1km/h 48% 0.00in /  0mm 543 W/m2
10:54 76.2 °F /  24.6 °C 55 °F /  12.8 °C 30.18in /  1021.9hPa SW 8.3mph /  13.4km/h 9mph /  14.5km/h 47.9% 0.00in /  0mm 547 W/m2
10:59 76.3 °F /  24.6 °C 54.9 °F /  12.7 °C 30.18in /  1021.9hPa SW 7.8mph /  12.6km/h 10mph /  16.1km/h 47.6% 0.00in /  0mm 541 W/m2
11:04 76.4 °F /  24.7 °C 54.9 °F /  12.7 °C 30.18in /  1021.9hPa SSW 8.4mph /  13.5km/h 8mph /  12.9km/h 47.4% 0.00in /  0mm 538 W/m2
11:09 76.6 °F /  24.8 °C 54.9 °F /  12.7 °C 30.18in /  1021.9hPa SSW 9.6mph /  15.4km/h 10mph /  16.1km/h 47% 0.00in /  0mm 539 W/m2
11:14 76.7 °F /  24.8 °C 54.5 °F /  12.5 °C 30.17in /  1021.6hPa SW 9.5mph /  15.3km/h 12mph /  19.3km/h 46.3% 0.00in /  0mm 548 W/m2
11:19 76.7 °F /  24.8 °C 55 °F /  12.8 °C 30.17in /  1021.6hPa SSW 9.7mph /  15.6km/h 10mph /  16.1km/h 47% 0.00in /  0mm 542 W/m2
11:24 77.2 °F /  25.1 °C 55.4 °F /  13 °C 30.17in /  1021.6hPa SW 9.6mph /  15.4km/h 12mph /  19.3km/h 47% 0.00in /  0mm 548 W/m2
11:29 77.5 °F /  25.3 °C 54.8 °F /  12.7 °C 30.17in /  1021.6hPa SW 10mph /  16.1km/h 12mph /  19.3km/h 45.5% 0.00in /  0mm 556 W/m2
11:34 77.7 °F /  25.4 °C 55.4 °F /  13 °C 30.17in /  1021.6hPa SW 7.8mph /  12.6km/h 10mph /  16.1km/h 46.2% 0.00in /  0mm 552 W/m2
11:39 78.2 °F /  25.7 °C 55.7 °F /  13.2 °C 30.17in /  1021.6hPa SW 8.9mph /  14.3km/h 10mph /  16.1km/h 45.9% 0.00in /  0mm 549 W/m2
11:44 78.6 °F /  25.9 °C 55.1 °F /  12.8 °C 30.17in /  1021.6hPa WSW 9.7mph /  15.6km/h 11mph /  17.7km/h 44.3% 0.00in /  0mm 549 W/m2
11:49 79 °F /  26.1 °C 54.5 °F /  12.5 °C 30.17in /  1021.6hPa WSW 9.4mph /  15.1km/h 11mph /  17.7km/h 42.9% 0.00in /  0mm 542 W/m2
11:54 78.9 °F /  26.1 °C 54.1 °F /  12.3 °C 30.16in /  1021.2hPa West 9.2mph /  14.8km/h 11mph /  17.7km/h 42.3% 0.00in /  0mm 543 W/m2
11:59 78.9 °F /  26.1 °C 54 °F /  12.2 °C 30.16in /  1021.2hPa West 7.9mph /  12.7km/h 11mph /  17.7km/h 42.2% 0.00in /  0mm 545 W/m2
12:04 79.1 °F /  26.2 °C 54.2 °F /  12.3 °C 30.16in /  1021.2hPa West 10.6mph /  17.1km/h 10mph /  16.1km/h 42.2% 0.00in /  0mm 537 W/m2
12:09 79.2 °F /  26.2 °C 53.1 °F /  11.7 °C 30.16in /  1021.2hPa West 10.9mph /  17.5km/h 14mph /  22.5km/h 40.5% 0.00in /  0mm 531 W/m2
12:14 79.2 °F /  26.2 °C 53.4 °F /  11.9 °C 30.16in /  1021.2hPa West 11.9mph /  19.2km/h 15mph /  24.1km/h 40.8% 0.00in /  0mm 528 W/m2
12:19 79.2 °F /  26.2 °C 52.8 °F /  11.6 °C 30.16in /  1021.2hPa West 13.6mph /  21.9km/h 15mph /  24.1km/h 40% 0.00in /  0mm 523 W/m2
12:24 79.2 °F /  26.2 °C 52.8 °F /  11.6 °C 30.15in /  1020.9hPa West 14mph /  22.5km/h 15mph /  24.1km/h 40% 0.00in /  0mm 514 W/m2
12:29 79.2 °F /  26.2 °C 52.6 °F /  11.4 °C 30.15in /  1020.9hPa West 12.3mph /  19.8km/h 15mph /  24.1km/h 39.8% 0.00in /  0mm 516 W/m2
12:34 79.2 °F /  26.2 °C 52.7 °F /  11.5 °C 30.15in /  1020.9hPa West 11mph /  17.7km/h 14mph /  22.5km/h 39.9% 0.00in /  0mm 507 W/m2
12:39 79.2 °F /  26.2 °C 52.7 °F /  11.5 °C 30.15in /  1020.9hPa West 11.6mph /  18.7km/h 12mph /  19.3km/h 39.8% 0.00in /  0mm 502 W/m2
12:44 79.2 °F /  26.2 °C 52.3 °F /  11.3 °C 30.15in /  1020.9hPa West 12.7mph /  20.4km/h 14mph /  22.5km/h 39.3% 0.00in /  0mm 493 W/m2
12:49 79.3 °F /  26.3 °C 52.8 °F /  11.6 °C 30.15in /  1020.9hPa West 10.3mph /  16.6km/h 14mph /  22.5km/h 40% 0.00in /  0mm 485 W/m2
12:54 79.6 °F /  26.4 °C 53.1 °F /  11.7 °C 30.15in /  1020.9hPa West 10.4mph /  16.7km/h 12mph /  19.3km/h 40% 0.00in /  0mm 474 W/m2
12:59 79.5 °F /  26.4 °C 52.5 °F /  11.4 °C 30.15in /  1020.9hPa WNW 10.7mph /  17.2km/h 12mph /  19.3km/h 39.2% 0.00in /  0mm 462 W/m2
13:04 79.1 °F /  26.2 °C 52.5 °F /  11.4 °C 30.14in /  1020.5hPa WNW 13.4mph /  21.6km/h 14mph /  22.5km/h 39.7% 0.00in /  0mm 450 W/m2
13:09 79 °F /  26.1 °C 52.6 °F /  11.4 °C 30.14in /  1020.5hPa WNW 10.8mph /  17.4km/h 15mph /  24.1km/h 40% 0.00in /  0mm 445 W/m2
13:14 79.1 °F /  26.2 °C 52.7 °F /  11.5 °C 30.14in /  1020.5hPa WNW 11mph /  17.7km/h 12mph /  19.3km/h 40% 0.00in /  0mm 431 W/m2
13:19 78.9 °F /  26.1 °C 52.6 °F /  11.4 °C 30.14in /  1020.5hPa WNW 13.3mph /  21.4km/h 12mph /  19.3km/h 40% 0.00in /  0mm 420 W/m2
13:24 78.7 °F /  25.9 °C 52.3 °F /  11.3 °C 30.14in /  1020.5hPa WNW 12.6mph /  20.3km/h 15mph /  24.1km/h 40% 0.00in /  0mm 383 W/m2
13:29 78.5 °F /  25.8 °C 52.1 °F /  11.2 °C 30.14in /  1020.5hPa WNW 10.5mph /  16.9km/h 14mph /  22.5km/h 40% 0.00in /  0mm 375 W/m2
13:34 78.3 °F /  25.7 °C 52 °F /  11.1 °C 30.14in /  1020.5hPa WNW 11.6mph /  18.7km/h 11mph /  17.7km/h 40% 0.00in /  0mm 379 W/m2
13:39 78.3 °F /  25.7 °C 53.2 °F /  11.8 °C 30.14in /  1020.5hPa WNW 9.4mph /  15.1km/h 13mph /  20.9km/h 41.9% 0.00in /  0mm 372 W/m2
13:44 78.4 °F /  25.8 °C 52.3 °F /  11.3 °C 30.14in /  1020.5hPa WNW 11.3mph /  18.2km/h 12mph /  19.3km/h 40.4% 0.00in /  0mm 359 W/m2
13:49 78.3 °F /  25.7 °C 52 °F /  11.1 °C 30.14in /  1020.5hPa WNW 10.3mph /  16.6km/h 13mph /  20.9km/h 40% 0.00in /  0mm 347 W/m2
13:54 78.3 °F /  25.7 °C 52 °F /  11.1 °C 30.14in /  1020.5hPa WNW 10.6mph /  17.1km/h 12mph /  19.3km/h 40% 0.00in /  0mm 336 W/m2
13:59 78.3 °F /  25.7 °C 52 °F /  11.1 °C 30.14in /  1020.5hPa West 9.8mph /  15.8km/h 13mph /  20.9km/h 40% 0.00in /  0mm 322 W/m2
14:04 78.2 °F /  25.7 °C 51.9 °F /  11.1 °C 30.14in /  1020.5hPa WSW 8.2mph /  13.2km/h 13mph /  20.9km/h 40% 0.00in /  0mm 315 W/m2
14:09 78.3 °F /  25.7 °C 52 °F /  11.1 °C 30.14in /  1020.5hPa West 10.6mph /  17.1km/h 8mph /  12.9km/h 40% 0.00in /  0mm 296 W/m2
14:14 78 °F /  25.6 °C 51.3 °F /  10.7 °C 30.14in /  1020.5hPa WNW 11.9mph /  19.2km/h 12mph /  19.3km/h 39.5% 0.00in /  0mm 283 W/m2
14:19 77.8 °F /  25.4 °C 51.2 °F /  10.7 °C 30.14in /  1020.5hPa WNW 10.2mph /  16.4km/h 14mph /  22.5km/h 39.5% 0.00in /  0mm 269 W/m2
14:24 77.5 °F /  25.3 °C 51.3 °F /  10.7 °C 30.14in /  1020.5hPa West 8.3mph /  13.4km/h 11mph /  17.7km/h 40% 0.00in /  0mm 258 W/m2
14:29 77.5 °F /  25.3 °C 51.2 °F /  10.7 °C 30.14in /  1020.5hPa West 10.5mph /  16.9km/h 9.4mph /  15.1km/h 40% 0.00in /  0mm 246 W/m2
14:34 77.3 °F /  25.2 °C 51 °F /  10.6 °C 30.14in /  1020.5hPa West 11.5mph /  18.5km/h 13mph /  20.9km/h 40% 0.00in /  0mm 231 W/m2
14:39 77.1 °F /  25.1 °C 51 °F /  10.6 °C 30.14in /  1020.5hPa West 10.1mph /  16.3km/h 12mph /  19.3km/h 40.2% 0.00in /  0mm 216 W/m2
14:44 76.8 °F /  24.9 °C 51.4 °F /  10.8 °C 30.14in /  1020.5hPa West 9.1mph /  14.6km/h 12mph /  19.3km/h 41.1% 0.00in /  0mm 206 W/m2
14:49 76.7 °F /  24.8 °C 51.1 °F /  10.6 °C 30.14in /  1020.5hPa West 9.7mph /  15.6km/h 10mph /  16.1km/h 40.7% 0.00in /  0mm 196 W/m2
14:54 76.6 °F /  24.8 °C 51.6 °F /  10.9 °C 30.14in /  1020.5hPa West 8.1mph /  13km/h 10mph /  16.1km/h 41.7% 0.00in /  0mm 180 W/m2
14:59 76.5 °F /  24.7 °C 51.7 °F /  10.9 °C 30.14in /  1020.5hPa West 7.9mph /  12.7km/h 9mph /  14.5km/h 42% 0.00in /  0mm 168 W/m2
15:04 76.3 °F /  24.6 °C 51 °F /  10.6 °C 30.14in /  1020.5hPa WSW 6.8mph /  10.9km/h 9mph /  14.5km/h 41.3% 0.00in /  0mm 154 W/m2
15:09 75.9 °F /  24.4 °C 50.9 °F /  10.5 °C 30.13in /  1020.2hPa WSW 8.2mph /  13.2km/h 8mph /  12.9km/h 41.5% 0.00in /  0mm 141 W/m2
15:14 75.7 °F /  24.3 °C 51 °F /  10.6 °C 30.14in /  1020.5hPa WSW 9.1mph /  14.6km/h 10mph /  16.1km/h 42% 0.00in /  0mm 129 W/m2
15:19 75.5 °F /  24.2 °C 50.8 °F /  10.4 °C 30.14in /  1020.5hPa West 7.4mph /  11.9km/h 9mph /  14.5km/h 42% 0.00in /  0mm 117 W/m2
15:24 75.3 °F /  24.1 °C 50.6 °F /  10.3 °C 30.14in /  1020.5hPa West 9.6mph /  15.4km/h 8mph /  12.9km/h 42% 0.00in /  0mm 105 W/m2
15:29 75.1 °F /  23.9 °C 50.6 °F /  10.3 °C 30.14in /  1020.5hPa West 9.4mph /  15.1km/h 13mph /  20.9km/h 42.3% 0.00in /  0mm 90 W/m2
15:34 74.8 °F /  23.8 °C 50.8 °F /  10.4 °C 30.14in /  1020.5hPa West 8.4mph /  13.5km/h 10mph /  16.1km/h 43% 0.00in /  0mm 80 W/m2
15:39 74.5 °F /  23.6 °C 50.6 °F /  10.3 °C 30.14in /  1020.5hPa West 7.8mph /  12.6km/h 10mph /  16.1km/h 43% 0.00in /  0mm 62 W/m2
15:44 74.2 °F /  23.4 °C 50.2 °F /  10.1 °C 30.14in /  1020.5hPa West 7.5mph /  12.1km/h 10mph /  16.1km/h 43% 0.00in /  0mm 50 W/m2
15:49 73.8 °F /  23.2 °C 50.3 °F /  10.2 °C 30.14in /  1020.5hPa West 6mph /  9.7km/h 8mph /  12.9km/h 43.7% 0.00in /  0mm 39 W/m2
15:54 73.4 °F /  23 °C 50.2 °F /  10.1 °C 30.14in /  1020.5hPa West 7.7mph /  12.4km/h 7mph /  11.3km/h 44% 0.00in /  0mm 32 W/m2
15:59 73 °F /  22.8 °C 49.8 °F /  9.9 °C 30.14in /  1020.5hPa West 7.8mph /  12.6km/h 9mph /  14.5km/h 44% 0.00in /  0mm 24 W/m2
16:04 72.7 °F /  22.6 °C 49.7 °F /  9.8 °C 30.14in /  1020.5hPa WSW 4.8mph /  7.7km/h 9mph /  14.5km/h 44.4% 0.00in /  0mm 19 W/m2
16:09 72.2 °F /  22.3 °C 49.7 °F /  9.8 °C 30.14in /  1020.5hPa WSW 3.6mph /  5.8km/h 6mph /  9.7km/h 45% 0.00in /  0mm 15 W/m2
16:14 71.6 °F /  22 °C 49.5 °F /  9.7 °C 30.14in /  1020.5hPa SW 3.7mph /  6km/h 5mph /  8km/h 45.7% 0.00in /  0mm 12 W/m2
16:19 71.2 °F /  21.8 °C 49.9 °F /  9.9 °C 30.14in /  1020.5hPa SW 4.4mph /  7.1km/h 5mph /  8km/h 46.9% 0.00in /  0mm 9 W/m2
16:24 70.7 °F /  21.5 °C 49.5 °F /  9.7 °C 30.14in /  1020.5hPa SW 3.5mph /  5.6km/h 5mph /  8km/h 47% 0.00in /  0mm 5 W/m2
16:29 70.3 °F /  21.3 °C 49.1 °F /  9.5 °C 30.14in /  1020.5hPa SW 3.3mph /  5.3km/h 4mph /  6.4km/h 47% 0.00in /  0mm 2 W/m2
16:34 70.2 °F /  21.2 °C 49 °F /  9.4 °C 30.14in /  1020.5hPa SW 3.3mph /  5.3km/h 3mph /  4.8km/h 47% 0.00in /  0mm 0 W/m2
16:39 69.9 °F /  21.1 °C 49.1 °F /  9.5 °C 30.15in /  1020.9hPa SW 2.4mph /  3.9km/h 3mph /  4.8km/h 47.7% 0.00in /  0mm 0 W/m2
16:44 69.6 °F /  20.9 °C 49 °F /  9.4 °C 30.15in /  1020.9hPa SW 2.3mph /  3.7km/h 2mph /  3.2km/h 47.9% 0.00in /  0mm 0 W/m2
16:49 69.3 °F /  20.7 °C 48.8 °F /  9.3 °C 30.15in /  1020.9hPa SW 3.5mph /  5.6km/h 2.9mph /  4.7km/h 48% 0.00in /  0mm 0 W/m2
16:54 69.1 °F /  20.6 °C 48.8 °F /  9.3 °C 30.15in /  1020.9hPa SSW 4.3mph /  6.9km/h 5mph /  8km/h 48.5% 0.00in /  0mm 0 W/m2
16:59 69 °F /  20.6 °C 49 °F /  9.4 °C 30.16in /  1021.2hPa SSW 4.1mph /  6.6km/h 5mph /  8km/h 48.9% 0.00in /  0mm 0 W/m2
17:04 68.8 °F /  20.4 °C 48.7 °F /  9.3 °C 30.16in /  1021.2hPa SW 5mph /  8km/h 5mph /  8km/h 48.8% 0.00in /  0mm 0 W/m2
17:09 68.7 °F /  20.4 °C 48.5 °F /  9.2 °C 30.16in /  1021.2hPa SW 3.6mph /  5.8km/h 6mph /  9.7km/h 48.5% 0.00in /  0mm 0 W/m2
17:14 68.7 °F /  20.4 °C 48.7 °F /  9.3 °C 30.16in /  1021.2hPa SSW 3.6mph /  5.8km/h 4mph /  6.4km/h 48.9% 0.00in /  0mm 0 W/m2
17:19 68.6 °F /  20.3 °C 48.7 °F /  9.3 °C 30.16in /  1021.2hPa SW 3.4mph /  5.5km/h 4mph /  6.4km/h 49% 0.00in /  0mm 0 W/m2
17:24 68.5 °F /  20.3 °C 48.6 °F /  9.2 °C 30.16in /  1021.2hPa SW 3.1mph /  5km/h 4mph /  6.4km/h 49% 0.00in /  0mm 0 W/m2
17:29 68.3 °F /  20.2 °C 48.4 °F /  9.1 °C 30.16in /  1021.2hPa WSW 2.3mph /  3.7km/h 3mph /  4.8km/h 49.1% 0.00in /  0mm 0 W/m2
17:34 68.1 °F /  20.1 °C 48.7 °F /  9.3 °C 30.16in /  1021.2hPa West 1.1mph /  1.8km/h 2mph /  3.2km/h 49.9% 0.00in /  0mm 0 W/m2
17:39 67.8 °F /  19.9 °C 48.8 °F /  9.3 °C 30.16in /  1021.2hPa WNW 1.5mph /  2.4km/h 2mph /  3.2km/h 50.6% 0.00in /  0mm 0 W/m2
17:44 67.6 °F /  19.8 °C 49.3 °F /  9.6 °C 30.16in /  1021.2hPa West 1.3mph /  2.1km/h 2mph /  3.2km/h 51.9% 0.00in /  0mm 0 W/m2
17:49 67.3 °F /  19.6 °C 49.1 °F /  9.5 °C 30.16in /  1021.2hPa West 2mph /  3.2km/h 2mph /  3.2km/h 52% 0.00in /  0mm 0 W/m2
17:54 67 °F /  19.4 °C 48.5 °F /  9.2 °C 30.17in /  1021.6hPa West 3.5mph /  5.6km/h 3mph /  4.8km/h 51.5% 0.00in /  0mm 0 W/m2
17:59 66.7 °F /  19.3 °C 47.3 °F /  8.5 °C 30.17in /  1021.6hPa WSW 5.4mph /  8.7km/h 5mph /  8km/h 49.6% 0.00in /  0mm 0 W/m2
18:04 66.7 °F /  19.3 °C 47.2 °F /  8.4 °C 30.17in /  1021.6hPa WSW 5.3mph /  8.5km/h 7mph /  11.3km/h 49.5% 0.00in /  0mm 0 W/m2
18:09 66.7 °F /  19.3 °C 47.1 °F /  8.4 °C 30.17in /  1021.6hPa WSW 7mph /  11.3km/h 7mph /  11.3km/h 49.2% 0.00in /  0mm 0 W/m2
18:14 66.7 °F /  19.3 °C 46.9 °F /  8.3 °C 30.17in /  1021.6hPa West 5.2mph /  8.4km/h 8mph /  12.9km/h 49% 0.00in /  0mm 0 W/m2
18:19 66.6 °F /  19.2 °C 46.5 °F /  8.1 °C 30.17in /  1021.6hPa West 5.6mph /  9km/h 6mph /  9.7km/h 48.4% 0.00in /  0mm 0 W/m2
18:24 66.7 °F /  19.3 °C 46.4 °F /  8 °C 30.17in /  1021.6hPa WNW 5.6mph /  9km/h 6mph /  9.7km/h 48% 0.00in /  0mm 0 W/m2
18:29 66.7 °F /  19.3 °C 46.4 °F /  8 °C 30.17in /  1021.6hPa WNW 6.7mph /  10.8km/h 6mph /  9.7km/h 48% 0.00in /  0mm 0 W/m2
18:34 66.7 °F /  19.3 °C 46.5 °F /  8.1 °C 30.17in /  1021.6hPa WNW 7.1mph /  11.4km/h 8mph /  12.9km/h 48.3% 0.00in /  0mm 0 W/m2
18:39 66.3 °F /  19.1 °C 47.2 °F /  8.4 °C 30.17in /  1021.6hPa West 4.6mph /  7.4km/h 8mph /  12.9km/h 50.3% 0.00in /  0mm 0 W/m2
18:44 65.9 °F /  18.8 °C 46.8 °F /  8.2 °C 30.17in /  1021.6hPa SW 4.3mph /  6.9km/h 6mph /  9.7km/h 50.1% 0.00in /  0mm 0 W/m2
18:49 65.7 °F /  18.7 °C 47.5 °F /  8.6 °C 30.17in /  1021.6hPa WSW 4.3mph /  6.9km/h 5mph /  8km/h 51.9% 0.00in /  0mm 0 W/m2
18:54 65.5 °F /  18.6 °C 47.4 °F /  8.6 °C 30.17in /  1021.6hPa SW 6.6mph /  10.6km/h 5.6mph /  9km/h 52% 0.00in /  0mm 0 W/m2
18:59 65.6 °F /  18.7 °C 46.8 °F /  8.2 °C 30.17in /  1021.6hPa SW 8.8mph /  14.2km/h 8mph /  12.9km/h 50.8% 0.00in /  0mm 0 W/m2
19:04 65.8 °F /  18.8 °C 46.7 °F /  8.2 °C 30.17in /  1021.6hPa SW 6.7mph /  10.8km/h 9mph /  14.5km/h 50% 0.00in /  0mm 0 W/m2
19:09 65.8 °F /  18.8 °C 47.1 °F /  8.4 °C 30.17in /  1021.6hPa WSW 5.3mph /  8.5km/h 8mph /  12.9km/h 50.7% 0.00in /  0mm 0 W/m2
19:14 65.7 °F /  18.7 °C 47.5 °F /  8.6 °C 30.17in /  1021.6hPa WSW 5.2mph /  8.4km/h 6mph /  9.7km/h 52% 0.00in /  0mm 0 W/m2
19:19 65.5 °F /  18.6 °C 47.4 °F /  8.6 °C 30.17in /  1021.6hPa WSW 5.2mph /  8.4km/h 6mph /  9.7km/h 52% 0.00in /  0mm 0 W/m2
19:24 65.2 °F /  18.4 °C 47.6 °F /  8.7 °C 30.18in /  1021.9hPa WSW 2.5mph /  4km/h 6mph /  9.7km/h 52.8% 0.00in /  0mm 0 W/m2
19:29 65 °F /  18.3 °C 48.1 °F /  8.9 °C 30.18in /  1021.9hPa WSW 6mph /  9.7km/h 5.8mph /  9.3km/h 54.3% 0.00in /  0mm 0 W/m2
19:34 64.7 °F /  18.2 °C 48.9 °F /  9.4 °C 30.18in /  1021.9hPa WSW 7.2mph /  11.6km/h 8mph /  12.9km/h 56.6% 0.00in /  0mm 0 W/m2
19:39 64.6 °F /  18.1 °C 48.3 °F /  9.1 °C 30.18in /  1021.9hPa West 8.1mph /  13km/h 8mph /  12.9km/h 55.7% 0.00in /  0mm 0 W/m2
19:44 64.8 °F /  18.2 °C 48.2 °F /  9 °C 30.18in /  1021.9hPa West 8.4mph /  13.5km/h 9mph /  14.5km/h 55% 0.00in /  0mm 0 W/m2
19:49 64.9 °F /  18.3 °C 48.3 °F /  9.1 °C 30.18in /  1021.9hPa West 10.2mph /  16.4km/h 9mph /  14.5km/h 55% 0.00in /  0mm 0 W/m2
19:54 64.8 °F /  18.2 °C 48.2 °F /  9 °C 30.18in /  1021.9hPa West 9.1mph /  14.6km/h 12mph /  19.3km/h 55% 0.00in /  0mm 0 W/m2
19:59 64.7 °F /  18.2 °C 48.7 °F /  9.3 °C 30.19in /  1022.2hPa West 9.5mph /  15.3km/h 9mph /  14.5km/h 56.2% 0.00in /  0mm 0 W/m2
20:04 64.5 °F /  18.1 °C 49.3 °F /  9.6 °C 30.19in /  1022.2hPa WSW 10.2mph /  16.4km/h 12mph /  19.3km/h 57.8% 0.00in /  0mm 0 W/m2
20:09 64.2 °F /  17.9 °C 49.1 °F /  9.5 °C 30.18in /  1021.9hPa WSW 10.2mph /  16.4km/h 12mph /  19.3km/h 58% 0.00in /  0mm 0 W/m2
20:14 64.1 °F /  17.8 °C 49.4 °F /  9.7 °C 30.19in /  1022.2hPa WSW 10.4mph /  16.7km/h 12mph /  19.3km/h 58.6% 0.00in /  0mm 0 W/m2
20:19 64.1 °F /  17.8 °C 49.5 °F /  9.7 °C 30.19in /  1022.2hPa WSW 11.8mph /  19km/h 12mph /  19.3km/h 59% 0.00in /  0mm 0 W/m2
20:24 64.2 °F /  17.9 °C 49.6 °F /  9.8 °C 30.19in /  1022.2hPa WSW 8.3mph /  13.4km/h 13mph /  20.9km/h 59% 0.00in /  0mm 0 W/m2
20:29 64 °F /  17.8 °C 49.4 °F /  9.7 °C 30.19in /  1022.2hPa WSW 7.5mph /  12.1km/h 8mph /  12.9km/h 59% 0.00in /  0mm 0 W/m2
20:34 64 °F /  17.8 °C 49.6 °F /  9.8 °C 30.19in /  1022.2hPa WSW 9.1mph /  14.6km/h 13mph /  20.9km/h 59.6% 0.00in /  0mm 0 W/m2
20:39 63.9 °F /  17.7 °C 49.7 °F /  9.8 °C 30.19in /  1022.2hPa WSW 8.7mph /  14km/h 10mph /  16.1km/h 60% 0.00in /  0mm 0 W/m2
20:44 63.8 °F /  17.7 °C 49.6 °F /  9.8 °C 30.19in /  1022.2hPa SW 8.9mph /  14.3km/h 9mph /  14.5km/h 60% 0.00in /  0mm 0 W/m2
20:49 63.5 °F /  17.5 °C 48.9 °F /  9.4 °C 30.19in /  1022.2hPa SW 5.1mph /  8.2km/h 10mph /  16.1km/h 59.2% 0.00in /  0mm 0 W/m2
20:54 62.8 °F /  17.1 °C 48.7 °F /  9.3 °C 30.19in /  1022.2hPa SSW 5.4mph /  8.7km/h 6mph /  9.7km/h 60% 0.00in /  0mm 0 W/m2
20:59 62.3 °F /  16.8 °C 47.9 °F /  8.8 °C 30.19in /  1022.2hPa SSW 3.6mph /  5.8km/h 8mph /  12.9km/h 59.2% 0.00in /  0mm 0 W/m2
21:04 62 °F /  16.7 °C 47.8 °F /  8.8 °C 30.19in /  1022.2hPa SSW 1.6mph /  2.6km/h 4mph /  6.4km/h 59.8% 0.00in /  0mm 0 W/m2
21:09 61.6 °F /  16.4 °C 47.6 °F /  8.7 °C 30.19in /  1022.2hPa NE 1.6mph /  2.6km/h 2mph /  3.2km/h 60% 0.00in /  0mm 0 W/m2
21:14 61.2 °F /  16.2 °C 47.3 °F /  8.5 °C 30.19in /  1022.2hPa NNW 1.8mph /  2.9km/h 2mph /  3.2km/h 60.2% 0.00in /  0mm 0 W/m2
21:19 60.9 °F /  16.1 °C 47.4 °F /  8.6 °C 30.19in /  1022.2hPa NW 2.5mph /  4km/h 3mph /  4.8km/h 61.1% 0.00in /  0mm 0 W/m2
21:24 60.4 °F /  15.8 °C 47.3 °F /  8.5 °C 30.20in /  1022.6hPa NNE 2.8mph /  4.5km/h 4mph /  6.4km/h 62% 0.00in /  0mm 0 W/m2
21:29 60.2 °F /  15.7 °C 47.3 °F /  8.5 °C 30.20in /  1022.6hPa East 2.8mph /  4.5km/h 4mph /  6.4km/h 62.5% 0.00in /  0mm 0 W/m2
21:34 60 °F /  15.6 °C 47.4 °F /  8.6 °C 30.20in /  1022.6hPa SSE 2.2mph /  3.5km/h 4mph /  6.4km/h 63% 0.00in /  0mm 0 W/m2
21:39 59.8 °F /  15.4 °C 47.2 °F /  8.4 °C 30.19in /  1022.2hPa SW 2.5mph /  4km/h 2.2mph /  3.5km/h 63% 0.00in /  0mm 0 W/m2
21:44 59.5 °F /  15.3 °C 46.9 °F /  8.3 °C 30.20in /  1022.6hPa SSW 2.3mph /  3.7km/h 3mph /  4.8km/h 63% 0.00in /  0mm 0 W/m2
21:49 59.2 °F /  15.1 °C 46.9 °F /  8.3 °C 30.20in /  1022.6hPa SSE 3.1mph /  5km/h 2.5mph /  4km/h 63.8% 0.00in /  0mm 0 W/m2
21:54 59 °F /  15 °C 46.8 °F /  8.2 °C 30.20in /  1022.6hPa East 4.4mph /  7.1km/h 4.2mph /  6.8km/h 64% 0.00in /  0mm 0 W/m2
21:59 59 °F /  15 °C 46.8 °F /  8.2 °C 30.19in /  1022.2hPa ESE 1.1mph /  1.8km/h 6mph /  9.7km/h 64% 0.00in /  0mm 0 W/m2
22:04 58.9 °F /  14.9 °C 46.9 °F /  8.3 °C 30.20in /  1022.6hPa SSE 0.4mph /  0.6km/h 2mph /  3.2km/h 64.3% 0.00in /  0mm 0 W/m2
22:09 58.7 °F /  14.8 °C 47 °F /  8.3 °C 30.20in /  1022.6hPa East 2.5mph /  4km/h 2.2mph /  3.5km/h 64.9% 0.00in /  0mm 0 W/m2
22:14 58.5 °F /  14.7 °C 46.8 °F /  8.2 °C 30.20in /  1022.6hPa North 3.2mph /  5.1km/h 3mph /  4.8km/h 65% 0.00in /  0mm 0 W/m2
22:19 58.4 °F /  14.7 °C 46.6 °F /  8.1 °C 30.19in /  1022.2hPa NNE 2.7mph /  4.3km/h 4mph /  6.4km/h 65% 0.00in /  0mm 0 W/m2
22:24 58.1 °F /  14.5 °C 46.4 °F /  8 °C 30.20in /  1022.6hPa NNE 1.7mph /  2.7km/h 3mph /  4.8km/h 65% 0.00in /  0mm 0 W/m2
22:29 57.8 °F /  14.3 °C 46.5 °F /  8.1 °C 30.20in /  1022.6hPa North 1.8mph /  2.9km/h 2mph /  3.2km/h 65.9% 0.00in /  0mm 0 W/m2
22:34 57.7 °F /  14.3 °C 46.8 °F /  8.2 °C 30.20in /  1022.6hPa NW 1.4mph /  2.3km/h 2mph /  3.2km/h 67% 0.00in /  0mm 0 W/m2
22:39 57.6 °F /  14.2 °C 47 °F /  8.3 °C 30.20in /  1022.6hPa NW 2.1mph /  3.4km/h 3mph /  4.8km/h 67.9% 0.00in /  0mm 0 W/m2
22:44 57.5 °F /  14.2 °C 47.6 °F /  8.7 °C 30.20in /  1022.6hPa NW 1.7mph /  2.7km/h 2mph /  3.2km/h 69.6% 0.00in /  0mm 0 W/m2
22:49 57.6 °F /  14.2 °C 48.4 °F /  9.1 °C 30.20in /  1022.6hPa NW 3.2mph /  5.1km/h 4mph /  6.4km/h 71.5% 0.00in /  0mm 0 W/m2
22:54 57.6 °F /  14.2 °C 48.6 °F /  9.2 °C 30.20in /  1022.6hPa NNW 2.1mph /  3.4km/h 4mph /  6.4km/h 72% 0.00in /  0mm 0 W/m2
22:59 57.5 °F /  14.2 °C 48.8 °F /  9.3 °C 30.21in /  1022.9hPa North 1.1mph /  1.8km/h 2mph /  3.2km/h 72.7% 0.00in /  0mm 0 W/m2
23:04 57.6 °F /  14.2 °C 49 °F /  9.4 °C 30.21in /  1022.9hPa North 1.6mph /  2.6km/h 2mph /  3.2km/h 73% 0.00in /  0mm 0 W/m2
23:09 57.4 °F /  14.1 °C 48.8 °F /  9.3 °C 30.21in /  1022.9hPa NNW 1.3mph /  2.1km/h 2mph /  3.2km/h 73% 0.00in /  0mm 0 W/m2
23:14 57.3 °F /  14.1 °C 48.8 °F /  9.3 °C 30.21in /  1022.9hPa WNW 2.5mph /  4km/h 3mph /  4.8km/h 73.3% 0.00in /  0mm 0 W/m2
23:19 57.1 °F /  13.9 °C 48.8 °F /  9.3 °C 30.21in /  1022.9hPa WNW 2.3mph /  3.7km/h 3mph /  4.8km/h 73.7% 0.00in /  0mm 0 W/m2
23:24 56.9 °F /  13.8 °C 48.6 °F /  9.2 °C 30.21in /  1022.9hPa West 2.6mph /  4.2km/h 2.2mph /  3.5km/h 73.7% 0.00in /  0mm 0 W/m2
23:29 56.8 °F /  13.8 °C 48.6 °F /  9.2 °C 30.21in /  1022.9hPa WSW 2.8mph /  4.5km/h 3mph /  4.8km/h 74% 0.00in /  0mm 0 W/m2
23:34 56.6 °F /  13.7 °C 48.6 °F /  9.2 °C 30.21in /  1022.9hPa WSW 2.7mph /  4.3km/h 3mph /  4.8km/h 74.6% 0.00in /  0mm 0 W/m2
23:39 56.4 °F /  13.6 °C 49.1 °F /  9.5 °C 30.21in /  1022.9hPa WSW 3.3mph /  5.3km/h 3mph /  4.8km/h 76.7% 0.00in /  0mm 0 W/m2
23:44 56.1 °F /  13.4 °C 49.2 °F /  9.6 °C 30.21in /  1022.9hPa SW 3mph /  4.8km/h 4mph /  6.4km/h 77.4% 0.00in /  0mm 0 W/m2
23:49 55.9 °F /  13.3 °C 48.9 °F /  9.4 °C 30.21in /  1022.9hPa SW 2.3mph /  3.7km/h 3mph /  4.8km/h 77.3% 0.00in /  0mm 0 W/m2
23:54 55.8 °F /  13.2 °C 49.2 °F /  9.6 °C 30.22in /  1023.2hPa SW 2.8mph /  4.5km/h 3mph /  4.8km/h 78.5% 0.00in /  0mm 0 W/m2
23:59 55.7 °F /  13.2 °C 49 °F /  9.4 °C 30.22in /  1023.2hPa SW 2.3mph /  3.7km/h 4mph /  6.4km/h 78.3% 0.00in /  0mm 0 W/m2
Knjazevac, Serbia
Compliments of Weather Underground - 4 mb